Stations météo

réclame
Mon MeteoGroup
Stansted, Grande-Bretagne (3683): Température de l'air & dewpoint: 17.10.2018 06:00:00 - 23.10.2018 06:00:00 (BST)Stansted, Grande-Bretagne (3683): Vitesse du vent: 17.10.2018 06:00:00 - 23.10.2018 06:00:00 (BST)Stansted, Grande-Bretagne (3683): Direction du vent: 17.10.2018 06:00:00 - 23.10.2018 06:00:00 (BST)Stansted, Grande-Bretagne (3683): visibility: 17.10.2018 06:00:00 - 23.10.2018 06:00:00 (BST)
Date & Time tt [°C] td [°C] ff [km/h] ff [knt] dd vv [km]
23.10.2018 06:00:00 7,0 4,0 15 8 W 10
23.10.2018 05:00:00 6,0 4,0 11 6 W 10
23.10.2018 04:00:00 6,0 4,0 8 4 W 10
23.10.2018 03:00:00 6,0 4,0 11 6 WSW 10
23.10.2018 02:00:00 5,0 3,0 11 6 WSW 10
23.10.2018 01:00:00 5,0 3,0 8 4 WSW 10
23.10.2018 00:00:00 3,0 2,0 5 3 WSW 10
22.10.2018 23:00:00 6,0 3,0 5 3 W 10
22.10.2018 22:00:00 6,0 3,0 5 3 W 10
22.10.2018 21:00:00 6,0 3,0 8 4 WSW 10
22.10.2018 20:00:00 7,0 3,0 8 4 SW 10
22.10.2018 19:00:00 7,0 3,0 4 2 W 10
22.10.2018 18:00:00 9,0 3,0 4 2 - 10
22.10.2018 17:00:00 11,0 3,0 9 5 NNW 10
22.10.2018 16:00:00 12,0 3,0 15 8 N 10
22.10.2018 15:00:00 12,0 4,0 15 8 NNW 10
22.10.2018 14:00:00 12,0 4,0 15 8 NNW 10
22.10.2018 13:00:00 11,0 4,0 15 8 N 10
22.10.2018 12:00:00 11,0 5,0 18 10 N 10
22.10.2018 11:00:00 9,0 4,0 16 9 N 10
22.10.2018 10:00:00 8,0 4,0 15 8 N 10
22.10.2018 09:00:00 6,0 3,0 8 4 N 10
22.10.2018 08:00:00 4,0 3,0 5 3 - 10
22.10.2018 07:00:00 5,0 3,0 9 5 NNW 10
22.10.2018 06:00:00 6,0 4,0 15 8 NNW 10
22.10.2018 05:00:00 7,0 3,0 11 6 NNW 10
22.10.2018 04:00:00 7,0 4,0 15 8 N 10
22.10.2018 03:00:00 9,0 5,0 21 11 N 10
22.10.2018 02:00:00 11,0 7,0 21 11 N 10
22.10.2018 01:00:00 12,0 8,0 18 10 N 10
22.10.2018 00:00:00 12,0 10,0 18 10 N 10
21.10.2018 23:00:00 13,0 10,0 21 11 NNW 10
21.10.2018 22:00:00 14,0 13,0 15 8 NNW 4,0
21.10.2018 21:00:00 15,0 12,0 15 8 NW 10
21.10.2018 20:00:00 15,0 11,0 5 3 WNW 10
21.10.2018 19:00:00 14,0 11,0 5 3 WNW 10
21.10.2018 18:00:00 15,0 11,0 5 3 W 10
21.10.2018 17:00:00 17,0 9,0 11 6 WNW 10
21.10.2018 16:00:00 18,0 10,0 9 5 W 10
21.10.2018 15:00:00 18,0 10,0 13 7 W 10
21.10.2018 14:00:00 18,0 10,0 13 7 WSW 10
21.10.2018 13:00:00 17,0 10,0 11 6 W 10
21.10.2018 12:00:00 15,0 11,0 11 6 W 10
21.10.2018 11:00:00 14,0 11,0 13 7 W 10
21.10.2018 10:00:00 11,0 11,0 11 6 SW 4,2
21.10.2018 09:00:00 10,0 10,0 8 4 WSW 0,2
21.10.2018 08:00:00 8,0 8,0 8 4 SW 0,2
21.10.2018 07:00:00 8,0 8,0 8 4 SW 0,1
21.10.2018 06:00:00 8,0 8,0 9 5 SW 2,0
21.10.2018 05:00:00 8,0 8,0 8 4 SW 2,0
21.10.2018 04:00:00 9,0 9,0 4 2 WSW 2,0
21.10.2018 03:00:00 10,0 10,0 4 2 W 3,9
21.10.2018 02:00:00 10,0 9,0 4 2 W 5
21.10.2018 01:00:00 10,0 9,0 5 3 S 5
21.10.2018 00:00:00 10,0 9,0 8 4 SW 10
20.10.2018 23:00:00 12,0 10,0 5 3 WSW 10
20.10.2018 22:00:00 13,0 10,0 5 3 WNW 10
20.10.2018 21:00:00 13,0 10,0 5 3 - 10
20.10.2018 20:00:00 14,0 10,0 5 3 WSW 10
20.10.2018 19:00:00 14,0 10,0 9 5 SW 10
20.10.2018 18:00:00 13,0 9,0 9 5 SW 10
20.10.2018 17:00:00 16,0 10,0 8 4 WSW 10
20.10.2018 16:00:00 17,0 10,0 13 7 WSW 10
20.10.2018 15:00:00 17,0 10,0 13 7 WSW 10
20.10.2018 14:00:00 16,0 10,0 16 9 SW 10
20.10.2018 13:00:00 16,0 10,0 15 8 SSW 10
20.10.2018 12:00:00 14,0 10,0 11 6 SW 10
20.10.2018 11:00:00 13,0 10,0 8 4 SW 10
20.10.2018 10:00:00 9,0 8,0 8 4 SW 8
20.10.2018 09:00:00 7,0 7,0 5 3 SW 6
20.10.2018 08:00:00 5,0 5,0 8 4 SW 4,9
20.10.2018 07:00:00 5,0 5,0 4 2 W 5
20.10.2018 06:00:00 5,0 5,0 5 3 WSW 5
20.10.2018 05:00:00 5,0 5,0 2 1 WNW 2,8
20.10.2018 04:00:00 6,0 6,0 2 1 WSW 5
20.10.2018 03:00:00 6,0 6,0 2 1 - 6
20.10.2018 02:00:00 6,0 6,0 4 2 WSW 3,9
20.10.2018 01:00:00 6,0 6,0 5 3 WSW 8
20.10.2018 00:00:00 7,0 6,0 2 1 WSW 10
19.10.2018 23:00:00 6,0 5,0 4 2 - 6
19.10.2018 22:00:00 6,0 5,0 4 2 W 10
19.10.2018 21:00:00 7,0 6,0 2 1 - 10
19.10.2018 20:00:00 6,0 6,0 2 1 NW 10
19.10.2018 19:00:00 8,0 7,0 5 3 NE 10
19.10.2018 18:00:00 11,0 7,0 5 3 N 10
19.10.2018 17:00:00 13,0 7,0 5 3 - 10
19.10.2018 16:00:00 13,0 7,0 8 4 NNW 10
19.10.2018 15:00:00 13,0 7,0 8 4 N 10
19.10.2018 14:00:00 13,0 7,0 11 6 N 10
19.10.2018 13:00:00 12,0 7,0 13 7 NNW 10
19.10.2018 12:00:00 11,0 8,0 9 5 NNW 10
19.10.2018 11:00:00 10,0 8,0 9 5 NNW 10
19.10.2018 10:00:00 8,0 8,0 8 4 N 10
19.10.2018 09:00:00 5,0 5,0 9 5 N 8
19.10.2018 08:00:00 3,0 3,0 9 5 NNW 1,0
19.10.2018 07:00:00 4,0 3,0 5 3 NNW 0,1
19.10.2018 06:00:00 4,0 4,0 8 4 NNW 0,5
19.10.2018 05:00:00 5,0 5,0 5 3 NNW 6
19.10.2018 04:00:00 5,0 5,0 9 5 NNW 7
19.10.2018 03:00:00 4,0 4,0 9 5 NNW 7
19.10.2018 02:00:00 4,0 4,0 5 3 NNW 10
19.10.2018 01:00:00 4,0 3,0 4 2 NNW 10
19.10.2018 00:00:00 4,0 4,0 4 2 NNW 10
18.10.2018 23:00:00 6,0 5,0 4 2 - 10
18.10.2018 22:00:00 6,0 5,0 5 3 N 10
18.10.2018 21:00:00 7,0 5,0 5 3 NNE 10
18.10.2018 20:00:00 8,0 6,0 13 7 NE 10
18.10.2018 19:00:00 9,0 6,0 11 6 NNE 10
18.10.2018 18:00:00 11,0 7,0 11 6 NNE 10
18.10.2018 17:00:00 13,0 8,0 13 7 NNE 10
18.10.2018 16:00:00 13,0 8,0 11 6 NNE 10
18.10.2018 15:00:00 14,0 9,0 13 7 NE 10
18.10.2018 14:00:00 15,0 9,0 13 7 NE 10
18.10.2018 13:00:00 14,0 10,0 13 7 NE 10
18.10.2018 12:00:00 13,0 11,0 13 7 NNE 10
18.10.2018 11:00:00 12,0 10,0 13 7 N 10
18.10.2018 10:00:00 10,0 10,0 13 7 N 10
18.10.2018 09:00:00 9,0 9,0 11 6 N 2,5
18.10.2018 08:00:00 9,0 9,0 9 5 N 3,5
18.10.2018 07:00:00 9,0 9,0 11 6 N 1,7
18.10.2018 06:00:00 9,0 9,0 13 7 N 0,3
18.10.2018 05:00:00 9,0 8,0 9 5 N 0,3
18.10.2018 04:00:00 10,0 9,0 9 5 N 0,3
18.10.2018 03:00:00 9,0 9,0 9 5 NNW 0,4
18.10.2018 02:00:00 9,0 9,0 5 3 NNW 0,4
18.10.2018 01:00:00 10,0 9,0 5 3 NNW 7
18.10.2018 00:00:00 11,0 10,0 5 3 N 10
17.10.2018 23:00:00 12,0 10,0 5 3 N 9
17.10.2018 22:00:00 11,0 10,0 9 5 NNE 8
17.10.2018 21:00:00 12,0 10,0 8 4 NNW 10
17.10.2018 20:00:00 13,0 11,0 9 5 N 10
17.10.2018 19:00:00 13,0 11,0 5 3 N 10
17.10.2018 18:00:00 14,0 11,0 5 3 N 10
17.10.2018 17:00:00 15,0 12,0 4 2 - 10
17.10.2018 16:00:00 15,0 13,0 5 3 - 10
17.10.2018 15:00:00 14,0 13,0 4 2 - 10
17.10.2018 14:00:00 14,0 13,0 4 2 - 10
17.10.2018 13:00:00 14,0 13,0 4 2 - 6
17.10.2018 12:00:00 13,0 12,0 8 4 W 3,5
17.10.2018 11:00:00 13,0 12,0 8 4 WSW 3,2
17.10.2018 10:00:00 13,0 12,0 9 5 SW 6
17.10.2018 09:00:00 12,0 11,0 9 5 SW 6
17.10.2018 08:00:00 12,0 11,0 9 5 SSW 7
17.10.2018 07:00:00 11,0 10,0 13 7 SW 8
17.10.2018 06:00:00 10,0 9,0 9 5 SSW 9

tt = Température de l'air
td = dewpoint
ff = Vitesse du vent
dd = Direction du vent
vv = visibility

stations d'obs. à proximité